createdAt,value
2022-09-20T00:02:08.264Z,9.60
2022-09-20T00:04:36.339Z,9.50
2022-09-20T00:07:04.615Z,9.60
2022-09-20T00:09:32.646Z,9.50
2022-09-20T00:12:00.671Z,9.50
2022-09-20T00:14:28.694Z,9.50
2022-09-20T00:16:58.128Z,9.50
2022-09-20T00:19:26.167Z,9.50
2022-09-20T00:21:54.160Z,9.50
2022-09-20T00:24:22.179Z,9.40
2022-09-20T00:26:50.176Z,9.30
2022-09-20T00:29:18.398Z,9.40
2022-09-20T00:31:47.322Z,9.40
2022-09-20T00:34:34.444Z,9.40
2022-09-20T00:37:02.458Z,9.40
2022-09-20T00:39:31.302Z,9.40
2022-09-20T00:41:59.296Z,9.40
2022-09-20T00:44:43.871Z,9.30
2022-09-20T00:47:14.805Z,9.30
2022-09-20T00:49:44.185Z,9.30
2022-09-20T00:52:12.180Z,9.30
2022-09-20T00:54:40.216Z,9.20
2022-09-20T00:57:08.211Z,9.20
2022-09-20T00:59:37.484Z,9.20
2022-09-20T01:02:07.741Z,9.20
2022-09-20T01:04:36.057Z,9.10
2022-09-20T01:07:05.716Z,9.10
2022-09-20T01:09:33.770Z,9.10
2022-09-20T01:12:04.007Z,9.10
2022-09-20T01:14:32.011Z,9.00
2022-09-20T01:17:03.123Z,9.00
2022-09-20T01:19:35.334Z,9.00
2022-09-20T01:22:05.495Z,9.00
2022-09-20T01:24:35.842Z,9.00
2022-09-20T01:27:09.983Z,8.90
2022-09-20T01:30:02.291Z,8.90
2022-09-20T01:32:35.304Z,8.90
2022-09-20T01:35:03.311Z,8.90
2022-09-20T01:37:34.831Z,8.90
2022-09-20T01:40:05.848Z,8.90
2022-09-20T01:42:34.891Z,8.80
2022-09-20T01:45:07.253Z,8.90
2022-09-20T01:47:39.686Z,8.90
2022-09-20T01:50:13.303Z,8.80
2022-09-20T01:53:04.934Z,8.80
2022-09-20T01:55:40.167Z,8.80
2022-09-20T01:58:31.515Z,8.80
2022-09-20T02:01:32.458Z,8.80
2022-09-20T02:04:18.394Z,8.80
2022-09-20T02:06:52.241Z,8.80
2022-09-20T02:09:41.753Z,8.80
2022-09-20T02:12:24.024Z,8.70
2022-09-20T02:14:54.455Z,8.70
2022-09-20T02:17:26.826Z,8.70
2022-09-20T02:20:09.145Z,8.70
2022-09-20T02:23:00.568Z,8.70
2022-09-20T02:25:39.711Z,8.70
2022-09-20T02:28:14.597Z,8.70
2022-09-20T02:30:47.614Z,8.70
2022-09-20T02:33:29.435Z,8.70
2022-09-20T02:36:14.277Z,8.70
2022-09-20T02:38:46.054Z,8.70
2022-09-20T02:41:47.448Z,8.70
2022-09-20T02:44:22.099Z,8.60
2022-09-20T02:46:54.688Z,8.60
2022-09-20T02:49:28.087Z,8.60
2022-09-20T02:51:57.197Z,8.60
2022-09-20T02:54:31.264Z,8.60
2022-09-20T02:57:01.357Z,8.60
2022-09-20T02:59:33.011Z,8.60
2022-09-20T03:02:05.831Z,8.60
2022-09-20T03:04:40.956Z,8.50
2022-09-20T03:07:13.503Z,8.50
2022-09-20T03:09:44.255Z,8.50
2022-09-20T03:12:16.449Z,8.50
2022-09-20T03:14:48.024Z,8.40
2022-09-20T03:17:20.424Z,8.40
2022-09-20T03:19:56.913Z,8.40
2022-09-20T03:22:31.270Z,8.30
2022-09-20T03:25:10.348Z,8.30
2022-09-20T03:27:42.754Z,8.20
2022-09-20T03:30:25.516Z,8.20
2022-09-20T03:32:59.968Z,8.20
2022-09-20T03:35:39.123Z,8.20
2022-09-20T03:38:17.151Z,8.10
2022-09-20T03:41:05.999Z,8.10
2022-09-20T03:43:44.381Z,8.00
2022-09-20T03:46:18.473Z,8.00
2022-09-20T03:49:43.572Z,8.00
2022-09-20T03:52:18.207Z,8.00
2022-09-20T03:55:09.703Z,8.00
2022-09-20T03:57:46.057Z,7.90
2022-09-20T04:00:23.568Z,8.00
2022-09-20T04:03:21.644Z,8.00
2022-09-20T04:05:56.277Z,7.90
2022-09-20T04:08:40.348Z,7.90
2022-09-20T04:11:10.367Z,7.90
2022-09-20T04:13:39.311Z,7.80
2022-09-20T04:16:16.139Z,7.90
2022-09-20T04:18:45.631Z,7.80
2022-09-20T04:21:17.421Z,7.80
2022-09-20T04:23:51.164Z,7.70
2022-09-20T04:26:22.042Z,7.70
2022-09-20T04:28:52.443Z,7.70
2022-09-20T04:31:27.073Z,7.60
2022-09-20T04:33:56.045Z,7.70
2022-09-20T04:36:36.715Z,7.70
2022-09-20T04:39:15.169Z,7.70
2022-09-20T04:42:10.849Z,7.70
2022-09-20T04:45:18.082Z,7.80
2022-09-20T04:48:03.089Z,7.80
2022-09-20T04:51:16.179Z,7.90
2022-09-20T04:54:21.820Z,8.00
2022-09-20T04:56:58.693Z,8.00
2022-09-20T04:59:32.222Z,8.00
2022-09-20T05:02:29.374Z,8.00
2022-09-20T05:05:14.527Z,8.10
2022-09-20T05:08:25.674Z,8.10
2022-09-20T05:11:18.360Z,8.10
2022-09-20T05:13:58.178Z,8.10
2022-09-20T05:16:28.422Z,8.20
2022-09-20T05:19:18.087Z,8.20
2022-09-20T05:21:51.080Z,8.30
2022-09-20T05:24:25.711Z,8.30
2022-09-20T05:27:04.367Z,8.30
2022-09-20T05:29:35.186Z,8.30
2022-09-20T05:32:05.119Z,8.30
2022-09-20T05:34:34.633Z,8.40
2022-09-20T05:37:05.634Z,8.40
2022-09-20T05:39:39.447Z,8.50
2022-09-20T05:42:18.335Z,8.50
2022-09-20T05:44:59.020Z,8.50
2022-09-20T05:47:34.609Z,8.60
2022-09-20T05:50:10.774Z,8.60
2022-09-20T05:52:44.434Z,8.70
2022-09-20T05:55:31.514Z,8.70
2022-09-20T05:58:17.369Z,8.90
2022-09-20T06:00:47.632Z,9.10
2022-09-20T06:03:18.078Z,9.20
2022-09-20T06:05:50.910Z,9.30
2022-09-20T06:08:33.560Z,9.40
2022-09-20T06:11:24.119Z,9.50
2022-09-20T06:14:06.052Z,9.70
2022-09-20T06:16:40.485Z,9.80
2022-09-20T06:19:15.310Z,9.90
2022-09-20T06:21:46.746Z,10.00
2022-09-20T06:24:25.629Z,10.20
2022-09-20T06:26:54.074Z,10.30
2022-09-20T06:29:27.407Z,10.30
2022-09-20T06:31:55.403Z,10.50
2022-09-20T06:34:23.494Z,10.60
2022-09-20T06:37:10.036Z,10.80
2022-09-20T06:39:57.918Z,11.00
2022-09-20T06:42:27.565Z,11.20
2022-09-20T06:44:56.926Z,11.40
2022-09-20T06:47:27.110Z,11.50
2022-09-20T06:49:55.650Z,11.70
2022-09-20T06:52:23.800Z,11.80
2022-09-20T06:54:53.902Z,12.10
2022-09-20T06:57:24.730Z,12.20
2022-09-20T06:59:52.698Z,12.40
2022-09-20T07:02:22.059Z,12.60
2022-09-20T07:04:53.919Z,12.70
2022-09-20T07:07:21.937Z,12.90
2022-09-20T07:09:49.906Z,13.00
2022-09-20T07:12:18.282Z,13.20
2022-09-20T07:14:46.260Z,13.40
2022-09-20T07:17:14.807Z,13.40
2022-09-20T07:19:44.155Z,13.70
2022-09-20T07:22:12.154Z,13.80
2022-09-20T07:24:40.603Z,14.00
2022-09-20T07:27:09.107Z,14.30
2022-09-20T07:29:37.087Z,14.40
2022-09-20T07:32:05.168Z,14.50
2022-09-20T07:34:33.151Z,14.80
2022-09-20T07:37:02.602Z,14.90
2022-09-20T07:39:30.577Z,15.10
2022-09-20T07:41:58.570Z,15.20
2022-09-20T07:44:27.919Z,15.30
2022-09-20T07:46:57.569Z,15.60
2022-09-20T07:49:26.120Z,15.70
2022-09-20T07:51:54.540Z,15.90
2022-09-20T07:54:23.906Z,16.00
2022-09-20T07:56:51.941Z,16.20
2022-09-20T07:59:19.959Z,16.40
2022-09-20T08:01:47.998Z,16.70
2022-09-20T08:04:15.988Z,16.60
2022-09-20T08:06:44.985Z,16.90
2022-09-20T08:09:13.473Z,17.20
2022-09-20T08:11:43.564Z,16.80
2022-09-20T08:14:14.015Z,17.10
2022-09-20T08:16:43.228Z,17.20
2022-09-20T08:19:14.683Z,17.30
2022-09-20T08:21:42.677Z,17.60
2022-09-20T08:24:10.718Z,17.40
2022-09-20T08:26:38.719Z,17.40
2022-09-20T08:29:08.486Z,17.30
2022-09-20T08:31:37.898Z,17.10
2022-09-20T08:34:06.961Z,17.10
2022-09-20T08:36:37.142Z,17.20
2022-09-20T08:41:56.780Z,17.20
2022-09-20T08:44:27.832Z,17.00
2022-09-20T08:47:02.767Z,16.90
2022-09-20T08:49:31.017Z,17.00
2022-09-20T08:51:59.085Z,17.10
2022-09-20T08:54:32.283Z,16.60
2022-09-20T08:57:03.507Z,16.40
2022-09-20T08:59:32.934Z,16.50
2022-09-20T09:02:01.302Z,16.40
2022-09-20T09:04:35.685Z,16.20
2022-09-20T09:07:03.766Z,16.10
2022-09-20T09:09:37.479Z,16.30
2022-09-20T09:12:05.970Z,16.50
2022-09-20T09:14:54.828Z,17.50
2022-09-20T09:17:27.578Z,17.90
2022-09-20T09:19:57.019Z,18.40
2022-09-20T09:22:32.232Z,18.90
2022-09-20T09:25:25.307Z,18.70
2022-09-20T09:27:57.368Z,18.80
2022-09-20T09:30:28.301Z,18.80
2022-09-20T09:33:17.321Z,19.10
2022-09-20T09:35:45.377Z,18.70
2022-09-20T09:38:19.173Z,18.00
2022-09-20T09:40:51.086Z,17.40
2022-09-20T09:43:23.407Z,16.80
2022-09-20T09:45:52.780Z,16.40
2022-09-20T09:48:22.718Z,16.30
2022-09-20T09:50:50.690Z,16.20
2022-09-20T09:53:22.275Z,16.00
2022-09-20T09:56:34.973Z,15.80
2022-09-20T09:59:20.953Z,15.70
2022-09-20T10:01:55.609Z,15.70
2022-09-20T10:04:26.639Z,15.70
2022-09-20T10:06:55.894Z,15.80
2022-09-20T10:09:30.747Z,15.80
2022-09-20T10:12:06.574Z,16.00
2022-09-20T10:14:41.370Z,15.80
2022-09-20T10:17:22.435Z,15.80
2022-09-20T10:19:59.413Z,15.60
2022-09-20T10:22:34.014Z,15.70
2022-09-20T10:25:04.167Z,15.80
2022-09-20T10:27:38.144Z,15.70
2022-09-20T10:30:10.327Z,15.70
2022-09-20T10:32:50.639Z,15.60
2022-09-20T10:35:25.815Z,15.70
2022-09-20T10:38:12.860Z,15.60
2022-09-20T10:41:01.721Z,15.60
2022-09-20T10:43:37.269Z,15.50
2022-09-20T10:49:04.865Z,15.60
2022-09-20T10:51:39.374Z,16.00
2022-09-20T10:54:10.171Z,16.70
2022-09-20T10:56:38.654Z,16.50
2022-09-20T10:59:17.723Z,16.70
2022-09-20T11:01:51.757Z,16.20
2022-09-20T11:04:45.759Z,16.10
2022-09-20T11:07:17.893Z,15.90
2022-09-20T11:09:47.867Z,16.00
2022-09-20T11:12:17.762Z,16.10
2022-09-20T11:14:48.418Z,16.20
2022-09-20T11:17:18.310Z,16.20
2022-09-20T11:19:53.434Z,16.50
2022-09-20T11:22:22.755Z,16.50
2022-09-20T11:24:52.306Z,16.40
2022-09-20T11:27:21.924Z,16.40
2022-09-20T11:29:51.807Z,16.30
2022-09-20T11:32:21.964Z,16.30
2022-09-20T11:34:54.245Z,16.30
2022-09-20T11:37:22.265Z,16.40
2022-09-20T11:39:51.867Z,16.40
2022-09-20T11:42:21.251Z,16.90
2022-09-20T11:44:49.225Z,17.00
2022-09-20T11:47:42.837Z,17.10
2022-09-20T11:50:38.811Z,17.50
2022-09-20T11:53:12.031Z,17.20
2022-09-20T11:55:43.992Z,17.00
2022-09-20T11:58:13.451Z,16.70
2022-09-20T12:00:42.582Z,16.30
2022-09-20T12:03:22.422Z,15.80
2022-09-20T12:05:57.396Z,15.00
2022-09-20T12:08:27.282Z,14.70
2022-09-20T12:10:57.679Z,14.60
2022-09-20T12:13:26.299Z,14.30
2022-09-20T12:16:02.536Z,14.00
2022-09-20T12:18:39.712Z,13.80
2022-09-20T12:21:15.387Z,13.90
2022-09-20T12:24:21.430Z,13.90
2022-09-20T12:26:50.943Z,14.00
2022-09-20T12:30:09.789Z,14.10
2022-09-20T12:32:57.336Z,14.20
2022-09-20T12:35:59.418Z,14.20
2022-09-20T12:38:37.629Z,14.40
2022-09-20T12:41:14.198Z,14.50
2022-09-20T12:44:04.214Z,14.50
2022-09-20T12:46:43.634Z,14.70
2022-09-20T12:49:36.607Z,14.70
2022-09-20T12:52:21.903Z,14.90
2022-09-20T12:54:53.174Z,14.90
2022-09-20T12:57:28.441Z,15.10
2022-09-20T12:59:57.175Z,15.30
2022-09-20T13:02:44.902Z,15.90
2022-09-20T13:05:32.201Z,16.30
2022-09-20T13:08:02.935Z,16.60
2022-09-20T13:10:35.989Z,16.50
2022-09-20T13:13:29.395Z,16.80
2022-09-20T13:15:57.613Z,16.80
2022-09-20T13:18:26.298Z,17.20
2022-09-20T13:20:55.990Z,17.00
2022-09-20T13:23:26.881Z,17.10
2022-09-20T13:25:57.670Z,17.20
2022-09-20T13:28:32.700Z,16.90
2022-09-20T13:31:26.162Z,17.10
2022-09-20T13:33:54.363Z,17.00
2022-09-20T13:36:26.528Z,16.60
2022-09-20T13:38:55.671Z,16.10
2022-09-20T13:41:25.020Z,15.30
2022-09-20T13:43:53.037Z,14.80
2022-09-20T13:46:24.433Z,14.70
2022-09-20T13:49:13.680Z,14.60
2022-09-20T13:51:41.673Z,14.70
2022-09-20T13:54:19.823Z,14.30
2022-09-20T13:56:49.545Z,14.30
2022-09-20T13:59:19.570Z,14.20
2022-09-20T14:01:50.852Z,13.90
2022-09-20T14:04:19.761Z,14.00
2022-09-20T14:06:47.770Z,14.00
2022-09-20T14:09:20.917Z,13.90
2022-09-20T14:11:50.293Z,13.90
2022-09-20T14:14:21.986Z,14.00
2022-09-20T14:16:50.540Z,14.30
2022-09-20T14:19:20.154Z,14.50
2022-09-20T14:21:48.754Z,14.60
2022-09-20T14:24:31.957Z,14.80
2022-09-20T14:27:22.361Z,14.90
2022-09-20T14:29:50.606Z,14.90
2022-09-20T14:32:32.567Z,14.80
2022-09-20T14:35:02.943Z,14.90
2022-09-20T14:37:31.949Z,14.80
2022-09-20T14:40:01.036Z,14.60
2022-09-20T14:42:32.811Z,14.20
2022-09-20T14:45:00.777Z,13.80
2022-09-20T14:47:29.881Z,13.50
2022-09-20T14:49:59.014Z,13.30
2022-09-20T14:52:36.630Z,12.90
2022-09-20T14:55:19.183Z,12.60
2022-09-20T14:57:48.753Z,12.50
2022-09-20T15:00:17.367Z,12.30
2022-09-20T15:02:45.786Z,12.30
2022-09-20T15:05:19.318Z,12.30
2022-09-20T15:07:47.702Z,12.20
2022-09-20T15:10:15.940Z,12.10
2022-09-20T15:12:43.942Z,12.10
2022-09-20T15:15:16.031Z,12.10
2022-09-20T15:17:44.031Z,12.00
2022-09-20T15:20:20.619Z,12.10
2022-09-20T15:22:51.287Z,12.20
2022-09-20T15:25:20.551Z,12.40
2022-09-20T15:27:50.930Z,12.40
2022-09-20T15:30:21.098Z,12.50
2022-09-20T15:32:49.251Z,12.60
2022-09-20T15:35:17.349Z,12.60
2022-09-20T15:37:45.439Z,12.60
2022-09-20T15:40:13.493Z,12.70
2022-09-20T15:42:42.026Z,12.60
2022-09-20T15:45:11.121Z,12.50
2022-09-20T15:47:40.621Z,12.60
2022-09-20T15:50:09.457Z,12.60
2022-09-20T15:52:38.041Z,12.60
2022-09-20T15:55:07.487Z,12.60
2022-09-20T15:57:35.506Z,12.60
2022-09-20T16:00:04.457Z,12.60
2022-09-20T16:02:39.830Z,12.50
2022-09-20T16:05:10.085Z,12.30
2022-09-20T16:07:38.176Z,12.10
2022-09-20T16:10:07.286Z,12.10
2022-09-20T16:12:35.286Z,12.00
2022-09-20T16:15:03.271Z,12.00
2022-09-20T16:17:48.907Z,11.90
2022-09-20T16:20:18.221Z,11.90
2022-09-20T16:22:47.092Z,11.90
2022-09-20T16:25:15.121Z,12.00
2022-09-20T16:27:43.119Z,12.00
2022-09-20T16:30:12.080Z,12.10
2022-09-20T16:32:40.070Z,12.20
2022-09-20T16:35:08.786Z,12.20
2022-09-20T16:37:39.409Z,12.20
2022-09-20T16:40:10.736Z,12.20
2022-09-20T16:42:39.121Z,12.20
2022-09-20T16:45:08.035Z,12.20
2022-09-20T16:47:41.303Z,12.10
2022-09-20T16:50:09.933Z,12.10
2022-09-20T16:52:39.269Z,12.00
2022-09-20T16:55:08.845Z,11.80
2022-09-20T16:57:37.905Z,11.70
2022-09-20T17:00:07.084Z,11.60
2022-09-20T17:02:36.245Z,11.60
2022-09-20T17:05:04.304Z,11.50
2022-09-20T17:07:32.645Z,11.50
2022-09-20T17:10:02.008Z,11.50
2022-09-20T17:12:33.239Z,11.50
2022-09-20T17:15:01.209Z,11.50
2022-09-20T17:17:29.212Z,11.50
2022-09-20T17:19:57.197Z,11.40
2022-09-20T17:22:25.195Z,11.30
2022-09-20T17:24:53.176Z,11.30
2022-09-20T17:27:22.554Z,11.20
2022-09-20T17:29:50.546Z,11.30
2022-09-20T17:32:19.340Z,11.20
2022-09-20T17:34:47.335Z,11.10
2022-09-20T17:37:15.551Z,11.10
2022-09-20T17:39:43.523Z,11.00
2022-09-20T17:42:11.523Z,11.10
2022-09-20T17:44:40.850Z,11.10
2022-09-20T17:47:09.198Z,11.10
2022-09-20T17:49:38.476Z,11.10
2022-09-20T17:52:08.125Z,11.10
2022-09-20T17:54:36.106Z,11.00
2022-09-20T17:57:05.643Z,11.00
2022-09-20T17:59:34.451Z,11.00
2022-09-20T18:02:03.824Z,10.90
2022-09-20T18:04:31.789Z,10.90
2022-09-20T18:07:00.694Z,10.80
2022-09-20T18:09:28.675Z,10.80
2022-09-20T18:11:56.794Z,10.80
2022-09-20T18:14:25.524Z,10.70
2022-09-20T18:16:53.663Z,10.80
2022-09-20T18:19:23.205Z,10.80
2022-09-20T18:21:51.247Z,10.70
2022-09-20T18:24:19.268Z,10.80
2022-09-20T18:26:47.262Z,10.80
2022-09-20T18:29:17.854Z,10.90
2022-09-20T18:31:47.774Z,10.90
2022-09-20T18:34:17.985Z,10.90
2022-09-20T18:36:48.530Z,10.90
2022-09-20T18:39:16.563Z,10.90
2022-09-20T18:41:44.883Z,10.90
2022-09-20T18:44:13.661Z,11.00
2022-09-20T18:46:41.793Z,10.90
2022-09-20T18:49:12.724Z,10.90
2022-09-20T18:51:40.795Z,10.90
2022-09-20T18:54:10.641Z,10.90
2022-09-20T18:56:39.263Z,10.90
2022-09-20T18:59:08.306Z,10.90
2022-09-20T19:01:57.611Z,10.90
2022-09-20T19:04:30.987Z,10.90
2022-09-20T19:07:04.588Z,10.80
2022-09-20T19:09:37.452Z,10.80
2022-09-20T19:12:07.858Z,10.80
2022-09-20T19:14:38.747Z,10.70
2022-09-20T19:17:07.821Z,10.70
2022-09-20T19:19:39.864Z,10.70
2022-09-20T19:22:14.919Z,10.70
2022-09-20T19:24:50.514Z,10.70
2022-09-20T19:27:18.823Z,10.70
2022-09-20T19:29:47.491Z,10.70
2022-09-20T19:32:18.868Z,10.60
2022-09-20T19:34:47.301Z,10.70
2022-09-20T19:37:20.342Z,10.60
2022-09-20T19:39:58.149Z,10.60
2022-09-20T19:42:30.000Z,10.70
2022-09-20T19:45:01.982Z,10.70
2022-09-20T19:47:34.437Z,10.70
2022-09-20T19:50:04.690Z,10.70
2022-09-20T19:52:33.160Z,10.70
2022-09-20T19:55:03.187Z,10.70
2022-09-20T19:57:34.586Z,10.70
2022-09-20T20:00:06.254Z,10.80
2022-09-20T20:02:37.871Z,10.80
2022-09-20T20:05:06.928Z,10.70
2022-09-20T20:07:36.211Z,10.80
2022-09-20T20:10:10.966Z,10.80
2022-09-20T20:12:41.121Z,10.80
2022-09-20T20:15:15.815Z,10.70
2022-09-20T20:17:48.982Z,10.70
2022-09-20T20:20:24.150Z,10.70
2022-09-20T20:23:10.043Z,10.70
2022-09-20T20:25:42.543Z,10.70
2022-09-20T20:28:10.570Z,10.70
2022-09-20T20:30:38.554Z,10.60
2022-09-20T20:33:06.654Z,10.60
2022-09-20T20:35:34.648Z,10.60
2022-09-20T20:38:02.643Z,10.60
2022-09-20T20:40:32.867Z,10.60
2022-09-20T20:43:02.664Z,10.60
2022-09-20T20:45:30.999Z,10.60
2022-09-20T20:47:59.147Z,10.50
2022-09-20T20:50:28.018Z,10.50
2022-09-20T20:52:56.398Z,10.40
2022-09-20T20:55:24.800Z,10.30
2022-09-20T20:57:58.395Z,10.30
2022-09-20T21:00:28.298Z,10.30
2022-09-20T21:02:59.940Z,10.30
2022-09-20T21:05:28.140Z,10.30
2022-09-20T21:07:56.522Z,10.30
2022-09-20T21:10:24.526Z,10.30
2022-09-20T21:12:55.288Z,10.20
2022-09-20T21:15:23.260Z,10.20
2022-09-20T21:17:53.258Z,10.10
2022-09-20T21:20:21.433Z,10.10
2022-09-20T21:22:49.434Z,10.10
2022-09-20T21:25:17.505Z,10.10
2022-09-20T21:27:45.507Z,10.10
2022-09-20T21:30:14.749Z,10.00
2022-09-20T21:32:42.743Z,10.00
2022-09-20T21:35:12.148Z,10.00
2022-09-20T21:37:40.207Z,10.00
2022-09-20T21:40:10.043Z,9.90
2022-09-20T21:42:38.083Z,9.90
2022-09-20T21:45:10.727Z,9.80
2022-09-20T21:47:38.726Z,9.80
2022-09-20T21:50:07.565Z,9.80
2022-09-20T21:52:36.900Z,9.80
2022-09-20T21:55:07.153Z,9.70
2022-09-20T21:57:35.148Z,9.70
2022-09-20T22:00:03.761Z,9.70
2022-09-20T22:02:40.506Z,9.60
2022-09-20T22:05:09.076Z,9.60
2022-09-20T22:07:38.434Z,9.50
2022-09-20T22:10:07.178Z,9.50
2022-09-20T22:12:35.167Z,9.40
2022-09-20T22:15:03.153Z,9.40
2022-09-20T22:17:31.121Z,9.40
2022-09-20T22:19:59.424Z,9.30
2022-09-20T22:22:28.646Z,9.30
2022-09-20T22:24:57.966Z,9.20
2022-09-20T22:27:25.977Z,9.20
2022-09-20T22:29:54.206Z,9.10
2022-09-20T22:32:22.222Z,9.10
2022-09-20T22:34:50.195Z,9.00
2022-09-20T22:37:18.350Z,9.00
2022-09-20T22:39:46.657Z,8.90
2022-09-20T22:42:15.989Z,8.90
2022-09-20T22:44:43.967Z,8.90
2022-09-20T22:47:12.341Z,8.80
2022-09-20T22:49:40.305Z,8.80
2022-09-20T22:52:08.294Z,8.80
2022-09-20T22:54:36.263Z,8.80
2022-09-20T22:57:04.324Z,8.70
2022-09-20T22:59:33.625Z,8.70
2022-09-20T23:02:01.915Z,8.60
2022-09-20T23:04:29.960Z,8.60
2022-09-20T23:06:57.963Z,8.60
2022-09-20T23:09:27.626Z,8.50
2022-09-20T23:11:55.731Z,8.50
2022-09-20T23:14:23.784Z,8.50
2022-09-20T23:16:53.346Z,8.50
2022-09-20T23:19:21.353Z,8.40
2022-09-20T23:21:49.355Z,8.40
2022-09-20T23:24:17.494Z,8.40
2022-09-20T23:26:45.689Z,8.30
2022-09-20T23:29:15.022Z,8.30
2022-09-20T23:31:46.188Z,8.30
2022-09-20T23:34:16.175Z,8.20
2022-09-20T23:36:44.548Z,8.10
2022-09-20T23:39:12.817Z,8.10
2022-09-20T23:41:41.313Z,8.00
2022-09-20T23:44:10.002Z,8.00
2022-09-20T23:46:38.421Z,8.00
2022-09-20T23:49:06.746Z,8.00
2022-09-20T23:51:37.205Z,7.90
2022-09-20T23:54:05.701Z,7.90
2022-09-20T23:56:33.824Z,7.90
2022-09-20T23:59:01.833Z,7.90
